Terminal Aerodrome Forecast
Issued by NWS

Home | Current Version | Previous Version | Graphics & Text | Print | Product List | Glossary On
Versions: 1 2 3 4 5 6 7 8 9 10 11 12 13 14 15 16
000
FTUS43 KICT 241131
TAFCNU
TAF
KCNU 241131Z 2412/2512 11014KT P6SM SCT030 BKN050
     FM241500 19019G26KT P6SM BKN030
     FM242000 30016G23KT P6SM SCT040
     FM250100 VRB05KT P6SM SCT250=

USA.gov is the U.S. government's official web portal to all federal, state and local government web resources and services.